createdAt,value
2022-09-17T00:01:07.347Z,67.01
2022-09-17T00:03:34.996Z,68.13
2022-09-17T00:06:03.186Z,66.57
2022-09-17T00:08:30.355Z,67.27
2022-09-17T00:10:56.840Z,67.44
2022-09-17T00:13:23.416Z,69.66
2022-09-17T00:15:51.156Z,69.20
2022-09-17T00:18:17.964Z,67.36
2022-09-17T00:20:46.962Z,66.34
2022-09-17T00:23:14.664Z,67.93
2022-09-17T00:25:42.821Z,67.56
2022-09-17T00:28:09.692Z,68.47
2022-09-17T00:30:40.449Z,68.55
2022-09-17T00:33:06.868Z,67.60
2022-09-17T00:35:33.335Z,68.64
2022-09-17T00:37:59.866Z,69.86
2022-09-17T00:40:26.345Z,68.68
2022-09-17T00:42:55.582Z,68.65
2022-09-17T00:45:23.233Z,71.21
2022-09-17T00:47:58.846Z,71.64
2022-09-17T00:50:28.282Z,71.06
2022-09-17T00:53:05.268Z,69.66
2022-09-17T00:55:36.384Z,69.99
2022-09-17T00:58:06.542Z,70.16
2022-09-17T01:00:33.026Z,68.49
2022-09-17T01:03:00.251Z,70.84
2022-09-17T01:05:47.195Z,69.85
2022-09-17T01:08:21.401Z,70.52
2022-09-17T01:11:19.403Z,70.56
2022-09-17T01:13:58.050Z,70.64
2022-09-17T01:17:22.131Z,69.98
2022-09-17T01:20:11.618Z,71.58
2022-09-17T01:23:05.662Z,69.57
2022-09-17T01:26:16.986Z,70.20
2022-09-17T01:29:14.755Z,67.31
2022-09-17T01:31:50.576Z,67.36
2022-09-17T01:34:29.964Z,69.61
2022-09-17T01:37:02.995Z,70.78
2022-09-17T01:39:38.617Z,69.78
2022-09-17T01:42:17.035Z,69.24
2022-09-17T01:45:09.192Z,68.09
2022-09-17T01:47:47.700Z,69.94
2022-09-17T01:50:25.619Z,69.85
2022-09-17T01:52:54.959Z,70.38
2022-09-17T01:55:25.706Z,68.98
2022-09-17T01:57:58.514Z,67.46
2022-09-17T02:00:24.957Z,71.79
2022-09-17T02:03:22.855Z,69.19
2022-09-17T02:05:55.777Z,69.74
2022-09-17T02:08:26.260Z,71.05
2022-09-17T02:11:02.256Z,69.77
2022-09-17T02:13:35.018Z,68.41
2022-09-17T02:16:13.173Z,69.60
2022-09-17T02:18:50.642Z,69.72
2022-09-17T02:21:55.719Z,68.59
2022-09-17T02:24:25.729Z,70.97
2022-09-17T02:27:07.352Z,69.37
2022-09-17T02:29:43.523Z,71.84
2022-09-17T02:32:11.692Z,71.89
2022-09-17T02:34:38.543Z,70.38
2022-09-17T02:37:06.310Z,69.67
2022-09-17T02:39:33.204Z,68.56
2022-09-17T02:42:33.615Z,69.05
2022-09-17T02:45:05.972Z,68.82
2022-09-17T02:48:14.384Z,66.55
2022-09-17T02:51:09.828Z,69.44
2022-09-17T02:53:44.881Z,66.87
2022-09-17T02:56:26.226Z,66.62
2022-09-17T02:59:31.468Z,69.32
2022-09-17T03:02:09.036Z,67.06
2022-09-17T03:04:38.336Z,66.19
2022-09-17T03:07:09.028Z,66.46
2022-09-17T03:09:36.126Z,68.30
2022-09-17T03:12:02.895Z,67.74
2022-09-17T03:14:29.311Z,67.55
2022-09-17T03:16:55.755Z,68.09
2022-09-17T03:19:22.231Z,68.67
2022-09-17T03:21:48.618Z,67.55
2022-09-17T03:24:15.229Z,67.71
2022-09-17T03:26:41.821Z,67.36
2022-09-17T03:29:08.279Z,68.69
2022-09-17T03:31:34.805Z,67.25
2022-09-17T03:34:01.259Z,66.70
2022-09-17T03:36:28.602Z,67.50
2022-09-17T03:38:57.962Z,67.70
2022-09-17T03:41:25.190Z,66.39
2022-09-17T03:43:51.947Z,65.48
2022-09-17T03:46:19.102Z,67.61
2022-09-17T03:48:45.880Z,68.58
2022-09-17T03:51:12.485Z,66.53
2022-09-17T03:53:38.904Z,66.12
2022-09-17T03:56:06.915Z,66.42
2022-09-17T03:58:34.784Z,66.22
2022-09-17T04:01:01.266Z,67.63
2022-09-17T04:03:28.305Z,66.25
2022-09-17T04:05:55.215Z,64.71
2022-09-17T04:08:21.900Z,65.29
2022-09-17T04:10:48.707Z,66.05
2022-09-17T04:13:16.777Z,68.52
2022-09-17T04:15:43.347Z,65.72
2022-09-17T04:18:10.519Z,65.90
2022-09-17T04:20:36.949Z,65.28
2022-09-17T04:23:03.866Z,65.21
2022-09-17T04:25:31.003Z,64.84
2022-09-17T04:27:57.403Z,65.32
2022-09-17T04:30:23.821Z,66.08
2022-09-17T04:32:50.289Z,65.12
2022-09-17T04:35:16.914Z,65.80
2022-09-17T04:37:43.315Z,66.19
2022-09-17T04:40:10.547Z,66.76
2022-09-17T04:42:36.996Z,64.05
2022-09-17T04:45:03.544Z,66.63
2022-09-17T04:47:29.946Z,66.34
2022-09-17T04:49:56.334Z,66.79
2022-09-17T04:52:22.751Z,63.50
2022-09-17T04:54:49.132Z,64.47
2022-09-17T04:57:15.537Z,64.29
2022-09-17T04:59:41.935Z,66.37
2022-09-17T05:02:08.551Z,65.05
2022-09-17T05:04:34.960Z,65.36
2022-09-17T05:07:02.729Z,63.38
2022-09-17T05:09:29.104Z,64.98
2022-09-17T05:11:55.492Z,64.79
2022-09-17T05:14:21.899Z,64.04
2022-09-17T05:16:48.381Z,63.29
2022-09-17T05:19:14.778Z,66.40
2022-09-17T05:21:41.191Z,64.76
2022-09-17T05:24:07.596Z,62.91
2022-09-17T05:26:34.009Z,63.50
2022-09-17T05:29:00.571Z,64.69
2022-09-17T05:31:27.130Z,64.32
2022-09-17T05:33:53.533Z,64.51
2022-09-17T05:36:19.967Z,63.66
2022-09-17T05:38:46.461Z,63.51
2022-09-17T05:41:12.890Z,64.99
2022-09-17T05:43:39.258Z,62.60
2022-09-17T05:46:06.553Z,63.81
2022-09-17T05:48:33.033Z,62.03
2022-09-17T05:50:59.454Z,66.63
2022-09-17T05:53:25.863Z,64.85
2022-09-17T05:55:57.162Z,65.00
2022-09-17T05:58:23.733Z,65.94
2022-09-17T06:00:50.641Z,68.24
2022-09-17T06:03:19.256Z,67.05
2022-09-17T06:05:58.062Z,65.30
2022-09-17T06:08:25.779Z,65.37
2022-09-17T06:10:52.187Z,65.44
2022-09-17T06:13:19.927Z,64.23
2022-09-17T06:15:53.889Z,65.73
2022-09-17T06:18:20.799Z,65.58
2022-09-17T06:21:00.978Z,65.40
2022-09-17T06:23:28.675Z,63.19
2022-09-17T06:25:57.313Z,65.28
2022-09-17T06:28:24.956Z,64.37
2022-09-17T06:30:55.837Z,64.08
2022-09-17T06:33:23.547Z,64.49
2022-09-17T06:35:57.266Z,64.85
2022-09-17T06:38:23.692Z,62.88
2022-09-17T06:40:53.370Z,61.24
2022-09-17T06:43:20.897Z,63.40
2022-09-17T06:45:54.762Z,63.76
2022-09-17T06:48:22.998Z,62.75
2022-09-17T06:50:50.548Z,62.80
2022-09-17T06:53:17.395Z,60.25
2022-09-17T06:55:43.769Z,61.30
2022-09-17T06:58:10.163Z,60.56
2022-09-17T07:00:36.558Z,60.88
2022-09-17T07:03:03.135Z,61.12
2022-09-17T07:05:32.000Z,60.59
2022-09-17T07:08:01.315Z,60.30
2022-09-17T07:10:27.713Z,60.75
2022-09-17T07:12:54.664Z,58.18
2022-09-17T07:15:21.734Z,59.04
2022-09-17T07:17:48.465Z,58.36
2022-09-17T07:20:15.400Z,57.43
2022-09-17T07:22:41.820Z,57.71
2022-09-17T07:25:08.984Z,58.64
2022-09-17T07:27:35.411Z,60.49
2022-09-17T07:30:01.989Z,58.65
2022-09-17T07:32:31.612Z,57.16
2022-09-17T07:34:58.025Z,56.99
2022-09-17T07:37:24.470Z,56.02
2022-09-17T07:39:51.030Z,56.29
2022-09-17T07:42:17.462Z,55.44
2022-09-17T07:44:44.119Z,54.46
2022-09-17T07:47:10.530Z,53.13
2022-09-17T07:49:36.929Z,53.25
2022-09-17T07:52:06.320Z,54.48
2022-09-17T07:54:38.604Z,52.35
2022-09-17T07:57:05.222Z,51.94
2022-09-17T07:59:31.774Z,54.06
2022-09-17T08:01:58.274Z,54.08
2022-09-17T08:04:24.840Z,52.41
2022-09-17T08:06:51.248Z,52.42
2022-09-17T08:09:18.580Z,50.91
2022-09-17T08:11:55.650Z,49.36
2022-09-17T08:14:27.041Z,49.68
2022-09-17T08:16:55.719Z,50.29
2022-09-17T08:19:22.249Z,49.16
2022-09-17T08:21:48.732Z,47.45
2022-09-17T08:24:15.264Z,50.93
2022-09-17T08:26:41.754Z,46.93
2022-09-17T08:29:08.158Z,50.08
2022-09-17T08:31:34.759Z,49.23
2022-09-17T08:34:08.212Z,48.92
2022-09-17T08:36:34.604Z,49.39
2022-09-17T08:39:01.266Z,46.75
2022-09-17T08:41:36.742Z,46.77
2022-09-17T08:44:26.234Z,47.19
2022-09-17T08:47:00.819Z,45.61
2022-09-17T08:49:30.115Z,46.90
2022-09-17T08:51:56.453Z,48.18
2022-09-17T08:54:49.232Z,46.98
2022-09-17T08:57:31.884Z,47.46
2022-09-17T08:59:58.267Z,46.65
2022-09-17T09:03:14.136Z,45.98
2022-09-17T09:05:48.743Z,45.03
2022-09-17T09:08:26.188Z,45.58
2022-09-17T09:10:55.834Z,44.02
2022-09-17T09:13:28.459Z,44.63
2022-09-17T09:16:11.336Z,44.44
2022-09-17T09:18:40.980Z,45.68
2022-09-17T09:21:22.532Z,44.73
2022-09-17T09:24:15.139Z,45.10
2022-09-17T09:26:50.119Z,45.34
2022-09-17T09:29:25.785Z,45.87
2022-09-17T09:32:16.191Z,46.33
2022-09-17T09:34:45.451Z,45.65
2022-09-17T09:37:16.583Z,45.48
2022-09-17T09:39:46.335Z,44.57
2022-09-17T09:42:32.895Z,46.96
2022-09-17T09:45:17.843Z,44.20
2022-09-17T09:47:49.301Z,46.38
2022-09-17T09:51:04.784Z,44.29
2022-09-17T09:54:10.804Z,44.62
2022-09-17T09:56:58.992Z,44.20
2022-09-17T09:59:26.774Z,46.56
2022-09-17T10:01:53.429Z,44.68
2022-09-17T10:04:25.922Z,44.03
2022-09-17T10:07:13.807Z,43.95
2022-09-17T10:09:46.264Z,44.97
2022-09-17T10:12:12.645Z,42.00
2022-09-17T10:14:44.506Z,43.51
2022-09-17T10:17:20.754Z,43.08
2022-09-17T10:20:18.287Z,42.60
2022-09-17T10:22:48.842Z,40.86
2022-09-17T10:25:31.361Z,41.81
2022-09-17T10:28:01.663Z,43.22
2022-09-17T10:30:28.345Z,42.92
2022-09-17T10:33:15.655Z,41.77
2022-09-17T10:35:55.208Z,41.93
2022-09-17T10:38:31.129Z,41.54
2022-09-17T10:41:30.021Z,42.94
2022-09-17T10:43:56.418Z,41.05
2022-09-17T10:46:33.752Z,42.59
2022-09-17T10:49:18.973Z,41.36
2022-09-17T10:51:45.460Z,39.99
2022-09-17T10:54:17.960Z,41.09
2022-09-17T10:56:54.390Z,41.04
2022-09-17T10:59:39.477Z,41.73
2022-09-17T11:02:27.906Z,40.74
2022-09-17T11:05:21.793Z,40.66
2022-09-17T11:08:01.259Z,41.54
2022-09-17T11:10:40.912Z,39.74
2022-09-17T11:13:27.604Z,41.01
2022-09-17T11:16:06.205Z,40.91
2022-09-17T11:18:37.708Z,40.62
2022-09-17T11:21:28.326Z,40.66
2022-09-17T11:24:22.637Z,40.03
2022-09-17T11:26:59.340Z,38.45
2022-09-17T11:29:44.152Z,37.75
2022-09-17T11:32:22.554Z,37.99
2022-09-17T11:35:06.762Z,38.22
2022-09-17T11:37:48.926Z,37.64
2022-09-17T11:40:17.964Z,38.13
2022-09-17T11:43:07.383Z,37.08
2022-09-17T11:45:39.161Z,38.03
2022-09-17T11:48:22.381Z,36.99
2022-09-17T11:51:05.071Z,36.33
2022-09-17T11:53:37.957Z,36.77
2022-09-17T11:56:23.460Z,36.96
2022-09-17T11:58:52.654Z,35.55
2022-09-17T12:01:26.683Z,36.64
2022-09-17T12:04:05.463Z,36.75
2022-09-17T12:06:44.580Z,37.74
2022-09-17T12:09:17.118Z,37.14
2022-09-17T12:11:43.466Z,45.09
2022-09-17T12:14:20.905Z,47.23
2022-09-17T12:16:52.844Z,49.78
2022-09-17T12:19:31.400Z,50.78
2022-09-17T12:22:26.153Z,51.47
2022-09-17T12:24:54.312Z,53.41
2022-09-17T12:27:58.121Z,53.28
2022-09-17T12:30:48.912Z,52.13
2022-09-17T12:33:38.480Z,52.92
2022-09-17T12:36:17.173Z,54.36
2022-09-17T12:39:03.273Z,54.65
2022-09-17T12:41:56.383Z,56.39
2022-09-17T12:44:40.767Z,56.72
2022-09-17T12:47:33.354Z,55.96
2022-09-17T12:50:20.400Z,55.49
2022-09-17T12:53:11.151Z,55.70
2022-09-17T12:56:16.098Z,55.71
2022-09-17T12:58:57.884Z,56.30
2022-09-17T13:01:27.173Z,55.42
2022-09-17T13:04:02.356Z,56.19
2022-09-17T13:06:56.460Z,57.91
2022-09-17T13:09:57.013Z,56.84
2022-09-17T13:12:47.502Z,55.28
2022-09-17T13:15:37.213Z,55.73
2022-09-17T13:18:27.246Z,56.94
2022-09-17T13:21:03.135Z,57.99
2022-09-17T13:23:44.591Z,57.15
2022-09-17T13:26:14.763Z,57.17
2022-09-17T13:28:47.473Z,57.14
2022-09-17T13:31:21.420Z,60.03
2022-09-17T13:33:58.922Z,58.75
2022-09-17T13:36:40.776Z,62.46
2022-09-17T13:39:11.348Z,59.49
2022-09-17T13:41:41.930Z,64.17
2022-09-17T13:44:10.736Z,62.54
2022-09-17T13:46:38.652Z,65.34
2022-09-17T13:49:15.304Z,64.78
2022-09-17T13:51:45.269Z,66.26
2022-09-17T13:54:12.028Z,64.35
2022-09-17T13:56:48.589Z,67.01
2022-09-17T13:59:19.274Z,64.54
2022-09-17T14:01:48.764Z,64.41
2022-09-17T14:04:43.238Z,66.52
2022-09-17T14:07:21.966Z,63.92
2022-09-17T14:09:51.457Z,65.33
2022-09-17T14:12:57.501Z,64.60
2022-09-17T14:15:43.300Z,64.73
2022-09-17T14:18:28.170Z,66.64
2022-09-17T14:21:06.251Z,64.95
2022-09-17T14:23:44.559Z,65.10
2022-09-17T14:26:18.147Z,67.29
2022-09-17T14:29:20.600Z,67.68
2022-09-17T14:31:47.386Z,66.69
2022-09-17T14:34:21.399Z,66.55
2022-09-17T14:36:49.319Z,67.30
2022-09-17T14:39:25.100Z,68.23
2022-09-17T14:41:54.439Z,66.03
2022-09-17T14:44:24.297Z,66.02
2022-09-17T14:47:02.262Z,66.56
2022-09-17T14:49:32.456Z,65.81
2022-09-17T14:51:59.649Z,64.86
2022-09-17T14:54:26.630Z,63.51
2022-09-17T14:57:01.017Z,63.18
2022-09-17T14:59:33.542Z,64.46
2022-09-17T15:02:00.245Z,66.44
2022-09-17T15:04:28.318Z,66.70
2022-09-17T15:07:12.452Z,65.54
2022-09-17T15:09:38.954Z,67.28
2022-09-17T15:12:06.420Z,65.90
2022-09-17T15:14:36.856Z,64.19
2022-09-17T15:17:04.949Z,66.21
2022-09-17T15:19:40.978Z,66.22
2022-09-17T15:22:16.738Z,64.41
2022-09-17T15:24:50.393Z,68.12
2022-09-17T15:27:22.128Z,66.25
2022-09-17T15:29:54.287Z,65.57
2022-09-17T15:32:21.028Z,66.69
2022-09-17T15:35:13.341Z,67.19
2022-09-17T15:38:05.699Z,69.08
2022-09-17T15:40:38.065Z,67.21
2022-09-17T15:43:23.092Z,68.61
2022-09-17T15:45:49.583Z,67.96
2022-09-17T15:48:27.804Z,67.77
2022-09-17T15:50:56.070Z,66.86
2022-09-17T15:53:26.893Z,70.06
2022-09-17T15:56:16.970Z,68.53
2022-09-17T15:58:46.148Z,68.41
2022-09-17T16:01:15.655Z,68.62
2022-09-17T16:03:43.271Z,67.45
2022-09-17T16:06:29.873Z,67.05
2022-09-17T16:08:58.659Z,65.97
2022-09-17T16:11:27.366Z,68.97
2022-09-17T16:13:55.747Z,68.30
2022-09-17T16:16:36.052Z,67.78
2022-09-17T16:19:05.820Z,69.02
2022-09-17T16:21:32.292Z,66.60
2022-09-17T16:23:59.213Z,69.54
2022-09-17T16:26:30.601Z,68.69
2022-09-17T16:29:02.902Z,69.88
2022-09-17T16:31:29.946Z,68.84
2022-09-17T16:33:56.451Z,68.91
2022-09-17T16:36:23.005Z,70.75
2022-09-17T16:38:49.384Z,68.47
2022-09-17T16:41:15.806Z,69.90
2022-09-17T16:43:42.200Z,70.32
2022-09-17T16:46:11.074Z,68.43
2022-09-17T16:48:38.123Z,69.46
2022-09-17T16:51:08.879Z,68.42
2022-09-17T16:53:35.396Z,68.60
2022-09-17T16:56:02.172Z,69.90
2022-09-17T16:58:28.690Z,68.58
2022-09-17T17:00:55.150Z,70.33
2022-09-17T17:03:21.702Z,68.19
2022-09-17T17:05:48.247Z,69.23
2022-09-17T17:08:14.761Z,68.35
2022-09-17T17:10:41.515Z,68.63
2022-09-17T17:13:07.885Z,70.04
2022-09-17T17:15:34.531Z,71.29
2022-09-17T17:18:00.929Z,72.34
2022-09-17T17:20:27.318Z,71.15
2022-09-17T17:22:55.101Z,69.61
2022-09-17T17:25:23.574Z,71.50
2022-09-17T17:27:50.299Z,69.85
2022-09-17T17:30:17.338Z,70.26
2022-09-17T17:32:48.103Z,69.44
2022-09-17T17:35:14.531Z,69.36
2022-09-17T17:37:41.056Z,70.87
2022-09-17T17:40:10.848Z,68.41
2022-09-17T17:42:39.474Z,70.04
2022-09-17T17:45:07.159Z,71.39
2022-09-17T17:47:33.945Z,69.80
2022-09-17T17:50:00.364Z,68.83
2022-09-17T17:52:27.422Z,68.47
2022-09-17T17:54:54.087Z,69.66
2022-09-17T17:57:20.506Z,71.44
2022-09-17T17:59:46.901Z,70.09
2022-09-17T18:02:13.369Z,72.23
2022-09-17T18:04:39.937Z,69.67
2022-09-17T18:07:07.637Z,69.89
2022-09-17T18:09:34.226Z,68.57
2022-09-17T18:12:00.628Z,72.19
2022-09-17T18:14:27.439Z,70.64
2022-09-17T18:16:54.098Z,71.67
2022-09-17T18:19:20.465Z,72.64
2022-09-17T18:21:46.939Z,70.54
2022-09-17T18:24:13.372Z,71.32
2022-09-17T18:26:39.766Z,70.92
2022-09-17T18:29:08.271Z,71.44
2022-09-17T18:31:35.897Z,72.82
2022-09-17T18:34:09.849Z,73.66
2022-09-17T18:36:37.679Z,73.47
2022-09-17T18:39:33.167Z,72.72
2022-09-17T18:41:53.371Z,72.68
2022-09-17T18:44:21.642Z,73.17
2022-09-17T18:46:49.495Z,74.59
2022-09-17T18:49:16.169Z,75.55
2022-09-17T18:51:42.848Z,73.34
2022-09-17T18:54:10.175Z,72.86
2022-09-17T18:56:37.163Z,73.71
2022-09-17T18:59:07.988Z,71.67
2022-09-17T19:01:35.427Z,72.91
2022-09-17T19:04:02.599Z,72.46
2022-09-17T19:06:31.902Z,71.98
2022-09-17T19:09:02.890Z,74.54
2022-09-17T19:11:29.331Z,73.16
2022-09-17T19:13:55.796Z,72.69
2022-09-17T19:16:22.739Z,72.14
2022-09-17T19:18:49.501Z,71.97
2022-09-17T19:21:18.636Z,72.22
2022-09-17T19:23:47.174Z,71.56
2022-09-17T19:26:23.463Z,72.37
2022-09-17T19:28:54.079Z,73.76
2022-09-17T19:31:20.959Z,72.31
2022-09-17T19:33:47.646Z,72.13
2022-09-17T19:36:16.286Z,73.69
2022-09-17T19:38:43.723Z,71.74
2022-09-17T19:41:13.111Z,69.72
2022-09-17T19:43:39.989Z,74.53
2022-09-17T19:46:12.405Z,72.18
2022-09-17T19:48:47.880Z,71.66
2022-09-17T19:51:15.603Z,72.34
2022-09-17T19:53:42.298Z,71.91
2022-09-17T19:56:17.593Z,71.75
2022-09-17T19:58:44.866Z,72.39
2022-09-17T20:01:11.756Z,70.31
2022-09-17T20:03:39.467Z,72.14
2022-09-17T20:06:08.571Z,71.99
2022-09-17T20:08:39.390Z,71.59
2022-09-17T20:11:10.401Z,72.25
2022-09-17T20:13:37.287Z,72.22
2022-09-17T20:16:09.672Z,72.92
2022-09-17T20:18:36.640Z,72.77
2022-09-17T20:21:27.671Z,70.50
2022-09-17T20:23:54.995Z,71.22
2022-09-17T20:26:22.207Z,71.38
2022-09-17T20:28:51.047Z,71.31
2022-09-17T20:31:20.376Z,71.64
2022-09-17T20:33:47.693Z,70.98
2022-09-17T20:36:17.109Z,72.54
2022-09-17T20:41:34.880Z,73.01
2022-09-17T20:44:01.507Z,71.20
2022-09-17T20:46:29.509Z,70.11
2022-09-17T20:48:57.543Z,72.05
2022-09-17T20:51:26.679Z,70.80
2022-09-17T20:53:53.413Z,71.28
2022-09-17T20:56:22.608Z,69.99
2022-09-17T20:59:08.092Z,70.75
2022-09-17T21:01:37.303Z,69.92
2022-09-17T21:04:06.250Z,71.80
2022-09-17T21:06:35.807Z,70.67
2022-09-17T21:09:03.475Z,72.01
2022-09-17T21:11:31.328Z,71.17
2022-09-17T21:13:59.042Z,69.84
2022-09-17T21:16:25.881Z,73.47
2022-09-17T21:19:01.384Z,72.66
2022-09-17T21:21:28.109Z,69.96
2022-09-17T21:23:54.757Z,73.76
2022-09-17T21:26:24.577Z,70.87
2022-09-17T21:28:55.445Z,72.58
2022-09-17T21:31:29.610Z,70.29
2022-09-17T21:34:00.875Z,69.60
2022-09-17T21:36:29.696Z,70.21
2022-09-17T21:38:59.127Z,69.18
2022-09-17T21:41:26.484Z,68.79
2022-09-17T21:43:53.253Z,69.34
2022-09-17T21:46:25.600Z,68.69
2022-09-17T21:48:54.551Z,68.35
2022-09-17T21:51:23.981Z,68.40
2022-09-17T21:53:52.334Z,68.99
2022-09-17T21:56:20.223Z,67.87
2022-09-17T21:58:51.787Z,68.57
2022-09-17T22:01:20.788Z,67.46
2022-09-17T22:03:48.085Z,67.82
2022-09-17T22:06:19.601Z,69.90
2022-09-17T22:08:46.603Z,67.89
2022-09-17T22:11:14.061Z,68.14
2022-09-17T22:13:41.153Z,69.26
2022-09-17T22:16:10.072Z,67.95
2022-09-17T22:18:37.936Z,69.46
2022-09-17T22:21:16.150Z,67.67
2022-09-17T22:23:42.644Z,67.04
2022-09-17T22:26:09.070Z,67.81
2022-09-17T22:28:35.732Z,66.66
2022-09-17T22:31:08.096Z,68.41
2022-09-17T22:33:36.851Z,66.22
2022-09-17T22:36:04.434Z,66.92
2022-09-17T22:38:31.147Z,67.92
2022-09-17T22:40:57.610Z,67.03
2022-09-17T22:43:24.071Z,68.58
2022-09-17T22:45:50.465Z,68.29
2022-09-17T22:48:17.010Z,69.79
2022-09-17T22:50:50.072Z,68.47
2022-09-17T22:53:17.308Z,65.79
2022-09-17T22:55:43.758Z,67.39
2022-09-17T22:58:10.171Z,67.21
2022-09-17T23:00:36.564Z,68.13
2022-09-17T23:03:03.003Z,66.16
2022-09-17T23:05:29.469Z,65.14
2022-09-17T23:07:55.855Z,65.79
2022-09-17T23:10:22.305Z,65.78
2022-09-17T23:12:48.686Z,65.74
2022-09-17T23:15:15.406Z,65.17
2022-09-17T23:17:42.435Z,66.27
2022-09-17T23:20:09.278Z,65.21
2022-09-17T23:22:35.655Z,65.26
2022-09-17T23:25:02.030Z,67.28
2022-09-17T23:27:28.473Z,65.94
2022-09-17T23:29:54.875Z,65.94
2022-09-17T23:32:21.357Z,65.53
2022-09-17T23:34:47.744Z,64.53
2022-09-17T23:37:14.192Z,66.60
2022-09-17T23:39:41.664Z,66.48
2022-09-17T23:42:08.069Z,67.48
2022-09-17T23:44:34.476Z,66.98
2022-09-17T23:47:00.854Z,65.50
2022-09-17T23:49:27.707Z,68.39
2022-09-17T23:51:54.101Z,66.70
2022-09-17T23:54:20.512Z,65.23
2022-09-17T23:56:46.909Z,66.56
2022-09-17T23:59:13.582Z,66.99
